sensor_id;sensor_type;location;lat;lon;timestamp;temperature;humidity
3550;DHT22;45572;48.804;8.330;2023-03-03T00:01:55;2.90;89.70
3550;DHT22;45572;48.804;8.330;2023-03-03T00:04:23;3.00;89.80
3550;DHT22;45572;48.804;8.330;2023-03-03T00:06:52;3.00;89.70
3550;DHT22;45572;48.804;8.330;2023-03-03T00:09:19;3.00;89.70
3550;DHT22;45572;48.804;8.330;2023-03-03T00:11:50;3.00;89.60
3550;DHT22;45572;48.804;8.330;2023-03-03T00:14:22;3.00;89.80
3550;DHT22;45572;48.804;8.330;2023-03-03T00:16:52;3.00;90.00
3550;DHT22;45572;48.804;8.330;2023-03-03T00:19:20;3.10;89.70
3550;DHT22;45572;48.804;8.330;2023-03-03T00:21:49;3.10;89.60
3550;DHT22;45572;48.804;8.330;2023-03-03T00:24:20;3.10;89.70
3550;DHT22;45572;48.804;8.330;2023-03-03T00:26:49;3.00;90.00
3550;DHT22;45572;48.804;8.330;2023-03-03T00:29:27;3.00;89.90
3550;DHT22;45572;48.804;8.330;2023-03-03T00:32:09;3.00;90.30
3550;DHT22;45572;48.804;8.330;2023-03-03T00:34:43;3.00;90.20
3550;DHT22;45572;48.804;8.330;2023-03-03T00:37:25;3.10;90.40
3550;DHT22;45572;48.804;8.330;2023-03-03T00:40:02;3.10;90.20
3550;DHT22;45572;48.804;8.330;2023-03-03T00:42:36;3.10;90.20
3550;DHT22;45572;48.804;8.330;2023-03-03T00:45:17;3.10;90.30
3550;DHT22;45572;48.804;8.330;2023-03-03T00:47:49;3.20;90.10
3550;DHT22;45572;48.804;8.330;2023-03-03T00:50:25;3.20;89.90
3550;DHT22;45572;48.804;8.330;2023-03-03T00:52:59;3.20;89.80
3550;DHT22;45572;48.804;8.330;2023-03-03T00:55:29;3.20;89.80
3550;DHT22;45572;48.804;8.330;2023-03-03T00:57:58;3.10;90.10
3550;DHT22;45572;48.804;8.330;2023-03-03T01:00:31;3.10;90.10
3550;DHT22;45572;48.804;8.330;2023-03-03T01:03:03;3.10;90.10
3550;DHT22;45572;48.804;8.330;2023-03-03T01:05:31;3.10;90.10
3550;DHT22;45572;48.804;8.330;2023-03-03T01:07:59;3.10;89.70
3550;DHT22;45572;48.804;8.330;2023-03-03T01:10:32;3.00;89.70
3550;DHT22;45572;48.804;8.330;2023-03-03T01:13:01;3.00;90.00
3550;DHT22;45572;48.804;8.330;2023-03-03T01:15:29;2.90;90.00
3550;DHT22;45572;48.804;8.330;2023-03-03T01:17:56;2.80;90.20
3550;DHT22;45572;48.804;8.330;2023-03-03T01:20:24;2.80;90.30
3550;DHT22;45572;48.804;8.330;2023-03-03T01:22:52;2.80;90.40
3550;DHT22;45572;48.804;8.330;2023-03-03T01:25:20;2.70;90.40
3550;DHT22;45572;48.804;8.330;2023-03-03T01:27:49;2.70;90.40
3550;DHT22;45572;48.804;8.330;2023-03-03T01:30:17;2.60;90.40
3550;DHT22;45572;48.804;8.330;2023-03-03T01:32:45;2.60;90.80
3550;DHT22;45572;48.804;8.330;2023-03-03T01:35:13;2.60;90.90
3550;DHT22;45572;48.804;8.330;2023-03-03T01:37:40;2.60;90.80
3550;DHT22;45572;48.804;8.330;2023-03-03T01:40:13;2.60;90.80
3550;DHT22;45572;48.804;8.330;2023-03-03T01:42:41;2.60;91.00
3550;DHT22;45572;48.804;8.330;2023-03-03T01:45:15;2.60;91.10
3550;DHT22;45572;48.804;8.330;2023-03-03T01:47:47;2.70;91.10
3550;DHT22;45572;48.804;8.330;2023-03-03T01:50:27;2.70;90.90
3550;DHT22;45572;48.804;8.330;2023-03-03T01:52:58;2.70;90.80
3550;DHT22;45572;48.804;8.330;2023-03-03T01:55:31;2.70;91.00
3550;DHT22;45572;48.804;8.330;2023-03-03T01:58:03;2.60;91.00
3550;DHT22;45572;48.804;8.330;2023-03-03T02:00:36;2.60;90.80
3550;DHT22;45572;48.804;8.330;2023-03-03T02:03:04;2.50;90.80
3550;DHT22;45572;48.804;8.330;2023-03-03T02:05:33;2.40;90.70
3550;DHT22;45572;48.804;8.330;2023-03-03T02:08:02;2.40;90.80
3550;DHT22;45572;48.804;8.330;2023-03-03T02:10:34;2.30;91.10
3550;DHT22;45572;48.804;8.330;2023-03-03T02:13:02;2.20;91.20
3550;DHT22;45572;48.804;8.330;2023-03-03T02:15:31;2.20;91.40
3550;DHT22;45572;48.804;8.330;2023-03-03T02:18:06;2.20;91.60
3550;DHT22;45572;48.804;8.330;2023-03-03T02:20:45;2.10;91.60
3550;DHT22;45572;48.804;8.330;2023-03-03T02:23:20;2.10;91.50
3550;DHT22;45572;48.804;8.330;2023-03-03T02:26:03;2.10;91.60
3550;DHT22;45572;48.804;8.330;2023-03-03T02:28:34;2.10;92.00
3550;DHT22;45572;48.804;8.330;2023-03-03T02:31:07;2.10;91.80
3550;DHT22;45572;48.804;8.330;2023-03-03T02:33:39;2.00;91.50
3550;DHT22;45572;48.804;8.330;2023-03-03T02:36:11;2.00;91.60
3550;DHT22;45572;48.804;8.330;2023-03-03T02:38:44;1.90;91.40
3550;DHT22;45572;48.804;8.330;2023-03-03T02:41:24;1.90;91.60
3550;DHT22;45572;48.804;8.330;2023-03-03T02:43:57;1.80;91.60
3550;DHT22;45572;48.804;8.330;2023-03-03T02:46:26;1.70;91.70
3550;DHT22;45572;48.804;8.330;2023-03-03T02:48:54;1.70;91.90
3550;DHT22;45572;48.804;8.330;2023-03-03T02:51:22;1.60;92.10
3550;DHT22;45572;48.804;8.330;2023-03-03T02:53:49;1.60;92.20
3550;DHT22;45572;48.804;8.330;2023-03-03T02:56:19;1.60;92.00
3550;DHT22;45572;48.804;8.330;2023-03-03T02:58:46;1.60;92.00
3550;DHT22;45572;48.804;8.330;2023-03-03T03:01:14;1.50;92.10
3550;DHT22;45572;48.804;8.330;2023-03-03T03:03:42;1.60;92.30
3550;DHT22;45572;48.804;8.330;2023-03-03T03:06:11;1.60;92.50
3550;DHT22;45572;48.804;8.330;2023-03-03T03:08:40;1.60;92.40
3550;DHT22;45572;48.804;8.330;2023-03-03T03:11:08;1.50;92.30
3550;DHT22;45572;48.804;8.330;2023-03-03T03:13:38;1.50;92.60
3550;DHT22;45572;48.804;8.330;2023-03-03T03:16:06;1.50;92.60
3550;DHT22;45572;48.804;8.330;2023-03-03T03:18:34;1.50;92.60
3550;DHT22;45572;48.804;8.330;2023-03-03T03:21:07;1.50;92.60
3550;DHT22;45572;48.804;8.330;2023-03-03T03:23:36;1.40;92.40
3550;DHT22;45572;48.804;8.330;2023-03-03T03:26:04;1.30;92.60
3550;DHT22;45572;48.804;8.330;2023-03-03T03:28:32;1.40;93.00
3550;DHT22;45572;48.804;8.330;2023-03-03T03:31:03;1.40;93.00
3550;DHT22;45572;48.804;8.330;2023-03-03T03:33:33;1.40;93.00
3550;DHT22;45572;48.804;8.330;2023-03-03T03:36:01;1.40;92.80
3550;DHT22;45572;48.804;8.330;2023-03-03T03:38:29;1.40;92.90
3550;DHT22;45572;48.804;8.330;2023-03-03T03:40:58;1.50;92.90
3550;DHT22;45572;48.804;8.330;2023-03-03T03:43:26;1.40;92.70
3550;DHT22;45572;48.804;8.330;2023-03-03T03:45:54;1.40;92.80
3550;DHT22;45572;48.804;8.330;2023-03-03T03:48:24;1.40;93.10
3550;DHT22;45572;48.804;8.330;2023-03-03T03:50:52;1.40;93.10
3550;DHT22;45572;48.804;8.330;2023-03-03T03:53:22;1.50;92.90
3550;DHT22;45572;48.804;8.330;2023-03-03T03:55:50;1.50;93.00
3550;DHT22;45572;48.804;8.330;2023-03-03T03:58:19;1.50;92.90
3550;DHT22;45572;48.804;8.330;2023-03-03T04:00:53;1.50;92.70
3550;DHT22;45572;48.804;8.330;2023-03-03T04:03:21;1.50;92.40
3550;DHT22;45572;48.804;8.330;2023-03-03T04:05:52;1.40;92.30
3550;DHT22;45572;48.804;8.330;2023-03-03T04:08:21;1.40;92.40
3550;DHT22;45572;48.804;8.330;2023-03-03T04:10:49;1.40;92.40
3550;DHT22;45572;48.804;8.330;2023-03-03T04:13:16;1.30;92.40
3550;DHT22;45572;48.804;8.330;2023-03-03T04:15:44;1.30;92.50
3550;DHT22;45572;48.804;8.330;2023-03-03T04:18:13;1.30;92.60
3550;DHT22;45572;48.804;8.330;2023-03-03T04:20:40;1.30;92.40
3550;DHT22;45572;48.804;8.330;2023-03-03T04:23:10;1.30;92.30
3550;DHT22;45572;48.804;8.330;2023-03-03T04:25:38;1.20;92.40
3550;DHT22;45572;48.804;8.330;2023-03-03T04:28:12;1.20;92.50
3550;DHT22;45572;48.804;8.330;2023-03-03T04:30:40;1.20;92.60
3550;DHT22;45572;48.804;8.330;2023-03-03T04:33:08;1.10;92.50
3550;DHT22;45572;48.804;8.330;2023-03-03T04:35:38;1.10;92.70
3550;DHT22;45572;48.804;8.330;2023-03-03T04:38:06;1.10;92.80
3550;DHT22;45572;48.804;8.330;2023-03-03T04:40:38;1.20;92.90
3550;DHT22;45572;48.804;8.330;2023-03-03T04:43:08;1.20;92.90
3550;DHT22;45572;48.804;8.330;2023-03-03T04:45:36;1.30;93.10
3550;DHT22;45572;48.804;8.330;2023-03-03T04:48:05;1.30;93.00
3550;DHT22;45572;48.804;8.330;2023-03-03T04:50:34;1.40;93.00
3550;DHT22;45572;48.804;8.330;2023-03-03T04:53:03;1.50;92.90
3550;DHT22;45572;48.804;8.330;2023-03-03T04:55:36;1.60;93.00
3550;DHT22;45572;48.804;8.330;2023-03-03T04:58:05;1.70;93.10
3550;DHT22;45572;48.804;8.330;2023-03-03T05:00:33;1.80;92.40
3550;DHT22;45572;48.804;8.330;2023-03-03T05:03:02;1.80;92.30
3550;DHT22;45572;48.804;8.330;2023-03-03T05:05:30;1.80;92.40
3550;DHT22;45572;48.804;8.330;2023-03-03T05:07:58;1.90;92.40
3550;DHT22;45572;48.804;8.330;2023-03-03T05:10:25;2.00;92.50
3550;DHT22;45572;48.804;8.330;2023-03-03T05:12:55;2.00;92.10
3550;DHT22;45572;48.804;8.330;2023-03-03T05:15:22;2.10;92.20
3550;DHT22;45572;48.804;8.330;2023-03-03T05:17:50;2.10;91.90
3550;DHT22;45572;48.804;8.330;2023-03-03T05:20:19;2.20;91.70
3550;DHT22;45572;48.804;8.330;2023-03-03T05:22:46;2.30;91.70
3550;DHT22;45572;48.804;8.330;2023-03-03T05:25:14;2.40;91.70
3550;DHT22;45572;48.804;8.330;2023-03-03T05:27:43;2.40;91.30
3550;DHT22;45572;48.804;8.330;2023-03-03T05:30:13;2.50;91.20
3550;DHT22;45572;48.804;8.330;2023-03-03T05:32:43;2.50;91.20
3550;DHT22;45572;48.804;8.330;2023-03-03T05:35:12;2.50;91.30
3550;DHT22;45572;48.804;8.330;2023-03-03T05:37:40;2.50;91.40
3550;DHT22;45572;48.804;8.330;2023-03-03T05:40:13;2.60;91.40
3550;DHT22;45572;48.804;8.330;2023-03-03T05:42:42;2.60;91.30
3550;DHT22;45572;48.804;8.330;2023-03-03T05:45:10;2.60;91.40
3550;DHT22;45572;48.804;8.330;2023-03-03T05:47:39;2.60;91.30
3550;DHT22;45572;48.804;8.330;2023-03-03T05:50:08;2.70;91.40
3550;DHT22;45572;48.804;8.330;2023-03-03T05:52:37;2.70;91.50
3550;DHT22;45572;48.804;8.330;2023-03-03T05:55:06;2.70;91.40
3550;DHT22;45572;48.804;8.330;2023-03-03T05:57:33;2.80;91.30
3550;DHT22;45572;48.804;8.330;2023-03-03T06:00:02;2.80;91.40
3550;DHT22;45572;48.804;8.330;2023-03-03T06:02:42;2.80;91.30
3550;DHT22;45572;48.804;8.330;2023-03-03T06:05:10;2.90;91.10
3550;DHT22;45572;48.804;8.330;2023-03-03T06:07:38;2.90;91.00
3550;DHT22;45572;48.804;8.330;2023-03-03T06:10:07;3.00;91.00
3550;DHT22;45572;48.804;8.330;2023-03-03T06:12:38;3.00;90.90
3550;DHT22;45572;48.804;8.330;2023-03-03T06:15:08;3.00;91.00
3550;DHT22;45572;48.804;8.330;2023-03-03T06:17:36;3.00;91.20
3550;DHT22;45572;48.804;8.330;2023-03-03T06:20:10;3.00;91.10
3550;DHT22;45572;48.804;8.330;2023-03-03T06:22:38;3.10;91.00
3550;DHT22;45572;48.804;8.330;2023-03-03T06:25:06;3.10;90.90
3550;DHT22;45572;48.804;8.330;2023-03-03T06:27:36;3.10;90.90
3550;DHT22;45572;48.804;8.330;2023-03-03T06:30:05;3.20;90.90
3550;DHT22;45572;48.804;8.330;2023-03-03T06:32:33;3.30;90.70
3550;DHT22;45572;48.804;8.330;2023-03-03T06:35:01;3.30;90.60
3550;DHT22;45572;48.804;8.330;2023-03-03T06:37:30;3.30;90.60
3550;DHT22;45572;48.804;8.330;2023-03-03T06:39:58;3.20;90.60
3550;DHT22;45572;48.804;8.330;2023-03-03T06:42:26;3.30;90.70
3550;DHT22;45572;48.804;8.330;2023-03-03T06:44:57;3.30;90.90
3550;DHT22;45572;48.804;8.330;2023-03-03T06:47:24;3.40;90.80
3550;DHT22;45572;48.804;8.330;2023-03-03T06:49:53;3.30;90.80
3550;DHT22;45572;48.804;8.330;2023-03-03T06:52:23;3.40;90.60
3550;DHT22;45572;48.804;8.330;2023-03-03T06:54:55;3.40;90.70
3550;DHT22;45572;48.804;8.330;2023-03-03T06:57:26;3.50;90.80
3550;DHT22;45572;48.804;8.330;2023-03-03T06:59:57;3.60;90.70
3550;DHT22;45572;48.804;8.330;2023-03-03T07:02:25;3.50;90.50
3550;DHT22;45572;48.804;8.330;2023-03-03T07:04:54;3.60;90.50
3550;DHT22;45572;48.804;8.330;2023-03-03T07:07:24;3.70;90.40
3550;DHT22;45572;48.804;8.330;2023-03-03T07:09:55;3.70;90.30
3550;DHT22;45572;48.804;8.330;2023-03-03T07:12:25;3.70;90.30
3550;DHT22;45572;48.804;8.330;2023-03-03T07:14:58;3.80;90.20
3550;DHT22;45572;48.804;8.330;2023-03-03T07:17:30;3.90;90.10
3550;DHT22;45572;48.804;8.330;2023-03-03T07:19:58;4.00;90.10
3550;DHT22;45572;48.804;8.330;2023-03-03T07:22:28;4.00;90.10
3550;DHT22;45572;48.804;8.330;2023-03-03T07:24:58;4.10;89.90
3550;DHT22;45572;48.804;8.330;2023-03-03T07:27:28;4.10;89.30
3550;DHT22;45572;48.804;8.330;2023-03-03T07:30:15;4.20;88.90
3550;DHT22;45572;48.804;8.330;2023-03-03T07:32:45;4.20;88.80
3550;DHT22;45572;48.804;8.330;2023-03-03T07:35:27;4.30;88.60
3550;DHT22;45572;48.804;8.330;2023-03-03T07:37:56;4.30;88.60
3550;DHT22;45572;48.804;8.330;2023-03-03T07:40:34;4.30;88.30
3550;DHT22;45572;48.804;8.330;2023-03-03T07:43:25;4.40;88.10
3550;DHT22;45572;48.804;8.330;2023-03-03T07:45:58;4.50;88.20
3550;DHT22;45572;48.804;8.330;2023-03-03T07:48:33;4.60;87.90
3550;DHT22;45572;48.804;8.330;2023-03-03T07:51:04;4.70;87.40
3550;DHT22;45572;48.804;8.330;2023-03-03T07:53:33;4.80;87.30
3550;DHT22;45572;48.804;8.330;2023-03-03T07:56:13;5.00;86.80
3550;DHT22;45572;48.804;8.330;2023-03-03T07:58:46;5.10;86.50
3550;DHT22;45572;48.804;8.330;2023-03-03T08:01:28;5.20;85.80
3550;DHT22;45572;48.804;8.330;2023-03-03T08:03:58;5.40;85.70
3550;DHT22;45572;48.804;8.330;2023-03-03T08:06:36;5.50;85.40
3550;DHT22;45572;48.804;8.330;2023-03-03T08:09:34;5.60;84.70
3550;DHT22;45572;48.804;8.330;2023-03-03T08:15:10;5.90;83.70
3550;DHT22;45572;48.804;8.330;2023-03-03T08:17:43;5.90;83.40
3550;DHT22;45572;48.804;8.330;2023-03-03T08:23:11;6.10;82.20
3550;DHT22;45572;48.804;8.330;2023-03-03T08:25:39;6.20;82.20
3550;DHT22;45572;48.804;8.330;2023-03-03T08:28:09;6.30;82.00
3550;DHT22;45572;48.804;8.330;2023-03-03T08:30:38;6.30;82.00
3550;DHT22;45572;48.804;8.330;2023-03-03T08:33:06;6.20;81.60
3550;DHT22;45572;48.804;8.330;2023-03-03T08:35:34;6.20;81.90
3550;DHT22;45572;48.804;8.330;2023-03-03T08:38:02;6.20;81.40
3550;DHT22;45572;48.804;8.330;2023-03-03T08:40:31;6.00;81.60
3550;DHT22;45572;48.804;8.330;2023-03-03T08:42:59;6.10;82.50
3550;DHT22;45572;48.804;8.330;2023-03-03T08:45:28;6.10;82.00
3550;DHT22;45572;48.804;8.330;2023-03-03T08:47:56;6.00;82.10
3550;DHT22;45572;48.804;8.330;2023-03-03T08:50:25;6.20;82.40
3550;DHT22;45572;48.804;8.330;2023-03-03T08:52:53;6.50;81.90
3550;DHT22;45572;48.804;8.330;2023-03-03T08:55:21;6.70;80.50
3550;DHT22;45572;48.804;8.330;2023-03-03T08:57:49;6.80;79.80
3550;DHT22;45572;48.804;8.330;2023-03-03T09:00:18;6.80;79.90
3550;DHT22;45572;48.804;8.330;2023-03-03T09:02:49;7.20;79.70
3550;DHT22;45572;48.804;8.330;2023-03-03T09:05:20;7.50;79.10
3550;DHT22;45572;48.804;8.330;2023-03-03T09:07:54;7.80;78.80
3550;DHT22;45572;48.804;8.330;2023-03-03T09:10:24;8.20;77.10
3550;DHT22;45572;48.804;8.330;2023-03-03T09:12:57;8.40;75.80
3550;DHT22;45572;48.804;8.330;2023-03-03T09:15:28;8.60;74.90
3550;DHT22;45572;48.804;8.330;2023-03-03T09:18:00;8.80;74.30
3550;DHT22;45572;48.804;8.330;2023-03-03T09:20:35;9.40;74.40
3550;DHT22;45572;48.804;8.330;2023-03-03T09:26:20;10.50;70.50
3550;DHT22;45572;48.804;8.330;2023-03-03T09:28:48;11.30;68.70
3550;DHT22;45572;48.804;8.330;2023-03-03T09:31:25;11.80;66.20
3550;DHT22;45572;48.804;8.330;2023-03-03T09:33:56;12.30;64.60
3550;DHT22;45572;48.804;8.330;2023-03-03T09:36:27;12.60;63.80
3550;DHT22;45572;48.804;8.330;2023-03-03T09:38:57;12.70;63.00
3550;DHT22;45572;48.804;8.330;2023-03-03T09:41:42;12.70;62.10
3550;DHT22;45572;48.804;8.330;2023-03-03T09:44:29;12.50;62.20
3550;DHT22;45572;48.804;8.330;2023-03-03T09:47:16;12.80;62.40
3550;DHT22;45572;48.804;8.330;2023-03-03T09:49:57;13.00;62.20
3550;DHT22;45572;48.804;8.330;2023-03-03T09:52:39;13.40;60.50
3550;DHT22;45572;48.804;8.330;2023-03-03T09:55:28;13.20;60.90
3550;DHT22;45572;48.804;8.330;2023-03-03T09:58:18;13.80;59.70
3550;DHT22;45572;48.804;8.330;2023-03-03T10:00:58;13.20;59.90
3550;DHT22;45572;48.804;8.330;2023-03-03T10:06:27;13.40;58.60
3550;DHT22;45572;48.804;8.330;2023-03-03T10:09:26;13.50;59.40
3550;DHT22;45572;48.804;8.330;2023-03-03T10:12:04;13.80;58.00
3550;DHT22;45572;48.804;8.330;2023-03-03T10:14:52;14.10;57.90
3550;DHT22;45572;48.804;8.330;2023-03-03T10:17:35;14.40;56.50
3550;DHT22;45572;48.804;8.330;2023-03-03T10:23:20;14.10;58.10
3550;DHT22;45572;48.804;8.330;2023-03-03T10:25:56;15.50;56.10
3550;DHT22;45572;48.804;8.330;2023-03-03T10:31:26;17.90;50.90
3550;DHT22;45572;48.804;8.330;2023-03-03T10:34:05;18.20;49.30
3550;DHT22;45572;48.804;8.330;2023-03-03T10:36:45;17.80;49.70
3550;DHT22;45572;48.804;8.330;2023-03-03T10:39:31;16.60;50.40
3550;DHT22;45572;48.804;8.330;2023-03-03T10:42:14;15.70;52.90
3550;DHT22;45572;48.804;8.330;2023-03-03T10:44:56;15.10;54.90
3550;DHT22;45572;48.804;8.330;2023-03-03T10:47:51;15.50;54.80
3550;DHT22;45572;48.804;8.330;2023-03-03T10:50:26;15.40;53.80
3550;DHT22;45572;48.804;8.330;2023-03-03T10:53:09;15.20;55.80
3550;DHT22;45572;48.804;8.330;2023-03-03T10:55:47;15.50;55.30
3550;DHT22;45572;48.804;8.330;2023-03-03T10:58:30;15.40;53.20
3550;DHT22;45572;48.804;8.330;2023-03-03T11:01:07;16.20;54.10
3550;DHT22;45572;48.804;8.330;2023-03-03T11:03:52;17.00;51.20
3550;DHT22;45572;48.804;8.330;2023-03-03T11:06:25;17.40;52.40
3550;DHT22;45572;48.804;8.330;2023-03-03T11:09:00;17.50;50.40
3550;DHT22;45572;48.804;8.330;2023-03-03T11:11:35;16.90;50.20
3550;DHT22;45572;48.804;8.330;2023-03-03T11:14:11;17.90;50.70
3550;DHT22;45572;48.804;8.330;2023-03-03T11:16:49;18.30;48.70
3550;DHT22;45572;48.804;8.330;2023-03-03T11:19:33;19.50;47.60
3550;DHT22;45572;48.804;8.330;2023-03-03T11:22:14;19.90;45.90
3550;DHT22;45572;48.804;8.330;2023-03-03T11:24:56;19.30;45.50
3550;DHT22;45572;48.804;8.330;2023-03-03T11:27:53;18.30;47.70
3550;DHT22;45572;48.804;8.330;2023-03-03T11:30:33;18.00;48.10
3550;DHT22;45572;48.804;8.330;2023-03-03T11:33:06;19.30;47.70
3550;DHT22;45572;48.804;8.330;2023-03-03T11:35:41;19.60;45.30
3550;DHT22;45572;48.804;8.330;2023-03-03T11:38:23;19.50;45.20
3550;DHT22;45572;48.804;8.330;2023-03-03T11:40:54;19.00;45.20
3550;DHT22;45572;48.804;8.330;2023-03-03T11:43:29;19.90;44.60
3550;DHT22;45572;48.804;8.330;2023-03-03T11:46:06;19.70;45.90
3550;DHT22;45572;48.804;8.330;2023-03-03T11:48:42;19.60;45.50
3550;DHT22;45572;48.804;8.330;2023-03-03T11:51:19;20.00;44.00
3550;DHT22;45572;48.804;8.330;2023-03-03T11:53:57;19.80;45.00
3550;DHT22;45572;48.804;8.330;2023-03-03T11:56:29;20.10;44.90
3550;DHT22;45572;48.804;8.330;2023-03-03T11:59:18;20.90;43.30
3550;DHT22;45572;48.804;8.330;2023-03-03T12:01:52;20.70;43.00
3550;DHT22;45572;48.804;8.330;2023-03-03T12:04:25;20.80;43.80
3550;DHT22;45572;48.804;8.330;2023-03-03T12:07:12;20.70;43.20
3550;DHT22;45572;48.804;8.330;2023-03-03T12:09:51;19.60;44.50
3550;DHT22;45572;48.804;8.330;2023-03-03T12:12:23;18.70;45.70
3550;DHT22;45572;48.804;8.330;2023-03-03T12:15:01;18.00;47.00
3550;DHT22;45572;48.804;8.330;2023-03-03T12:17:43;17.20;48.30
3550;DHT22;45572;48.804;8.330;2023-03-03T12:20:21;16.40;48.90
3550;DHT22;45572;48.804;8.330;2023-03-03T12:23:00;16.00;49.90
3550;DHT22;45572;48.804;8.330;2023-03-03T12:25:37;15.60;51.40
3550;DHT22;45572;48.804;8.330;2023-03-03T12:28:09;15.20;52.00
3550;DHT22;45572;48.804;8.330;2023-03-03T12:30:56;14.50;53.00
3550;DHT22;45572;48.804;8.330;2023-03-03T12:33:37;14.30;54.00
3550;DHT22;45572;48.804;8.330;2023-03-03T12:36:21;13.80;55.40
3550;DHT22;45572;48.804;8.330;2023-03-03T12:38:55;13.50;57.10
3550;DHT22;45572;48.804;8.330;2023-03-03T12:41:33;13.40;57.70
3550;DHT22;45572;48.804;8.330;2023-03-03T12:44:10;13.00;59.10
3550;DHT22;45572;48.804;8.330;2023-03-03T12:46:44;12.90;58.30
3550;DHT22;45572;48.804;8.330;2023-03-03T12:49:12;12.80;57.80
3550;DHT22;45572;48.804;8.330;2023-03-03T12:51:47;12.70;58.70
3550;DHT22;45572;48.804;8.330;2023-03-03T12:54:27;12.60;58.90
3550;DHT22;45572;48.804;8.330;2023-03-03T12:57:12;12.70;58.80
3550;DHT22;45572;48.804;8.330;2023-03-03T12:59:51;12.70;58.40
3550;DHT22;45572;48.804;8.330;2023-03-03T13:02:40;12.70;59.00
3550;DHT22;45572;48.804;8.330;2023-03-03T13:05:26;12.70;58.30
3550;DHT22;45572;48.804;8.330;2023-03-03T13:08:11;12.60;59.20
3550;DHT22;45572;48.804;8.330;2023-03-03T13:10:45;12.50;58.40
3550;DHT22;45572;48.804;8.330;2023-03-03T13:13:19;12.50;59.10
3550;DHT22;45572;48.804;8.330;2023-03-03T13:15:59;12.40;59.40
3550;DHT22;45572;48.804;8.330;2023-03-03T13:18:43;12.50;59.00
3550;DHT22;45572;48.804;8.330;2023-03-03T13:21:22;12.50;59.20
3550;DHT22;45572;48.804;8.330;2023-03-03T13:24:03;12.60;59.30
3550;DHT22;45572;48.804;8.330;2023-03-03T13:26:38;12.50;60.20
3550;DHT22;45572;48.804;8.330;2023-03-03T13:29:14;12.50;59.10
3550;DHT22;45572;48.804;8.330;2023-03-03T13:31:48;12.40;59.40
3550;DHT22;45572;48.804;8.330;2023-03-03T13:34:26;12.30;59.70
3550;DHT22;45572;48.804;8.330;2023-03-03T13:37:00;12.40;59.60
3550;DHT22;45572;48.804;8.330;2023-03-03T13:39:32;12.30;60.00
3550;DHT22;45572;48.804;8.330;2023-03-03T13:42:03;12.20;60.10
3550;DHT22;45572;48.804;8.330;2023-03-03T13:44:38;12.30;60.20
3550;DHT22;45572;48.804;8.330;2023-03-03T13:47:13;12.20;60.70
3550;DHT22;45572;48.804;8.330;2023-03-03T13:49:56;12.20;60.10
3550;DHT22;45572;48.804;8.330;2023-03-03T13:52:28;12.30;60.30
3550;DHT22;45572;48.804;8.330;2023-03-03T13:55:07;12.20;59.60
3550;DHT22;45572;48.804;8.330;2023-03-03T13:57:43;12.20;60.10
3550;DHT22;45572;48.804;8.330;2023-03-03T14:00:21;12.20;59.90
3550;DHT22;45572;48.804;8.330;2023-03-03T14:03:02;12.30;60.20
3550;DHT22;45572;48.804;8.330;2023-03-03T14:05:40;12.20;60.10
3550;DHT22;45572;48.804;8.330;2023-03-03T14:08:16;12.20;59.50
3550;DHT22;45572;48.804;8.330;2023-03-03T14:10:56;12.10;60.10
3550;DHT22;45572;48.804;8.330;2023-03-03T14:13:29;12.10;60.50
3550;DHT22;45572;48.804;8.330;2023-03-03T14:16:03;12.10;60.20
3550;DHT22;45572;48.804;8.330;2023-03-03T14:18:36;12.10;60.30
3550;DHT22;45572;48.804;8.330;2023-03-03T14:21:10;12.00;60.00
3550;DHT22;45572;48.804;8.330;2023-03-03T14:23:50;12.00;60.30
3550;DHT22;45572;48.804;8.330;2023-03-03T14:26:22;11.90;60.30
3550;DHT22;45572;48.804;8.330;2023-03-03T14:29:04;11.90;60.50
3550;DHT22;45572;48.804;8.330;2023-03-03T14:31:43;12.00;60.90
3550;DHT22;45572;48.804;8.330;2023-03-03T14:34:25;11.90;60.80
3550;DHT22;45572;48.804;8.330;2023-03-03T14:37:07;11.90;60.70
3550;DHT22;45572;48.804;8.330;2023-03-03T14:39:50;11.90;61.20
3550;DHT22;45572;48.804;8.330;2023-03-03T14:42:31;11.80;61.30
3550;DHT22;45572;48.804;8.330;2023-03-03T14:45:00;11.80;61.30
3550;DHT22;45572;48.804;8.330;2023-03-03T14:47:30;11.80;61.50
3550;DHT22;45572;48.804;8.330;2023-03-03T14:49:58;11.80;61.30
3550;DHT22;45572;48.804;8.330;2023-03-03T14:52:28;11.80;61.20
3550;DHT22;45572;48.804;8.330;2023-03-03T14:54:58;11.80;61.00
3550;DHT22;45572;48.804;8.330;2023-03-03T14:57:38;11.70;60.90
3550;DHT22;45572;48.804;8.330;2023-03-03T15:00:31;11.70;61.00
3550;DHT22;45572;48.804;8.330;2023-03-03T15:03:20;11.70;61.60
3550;DHT22;45572;48.804;8.330;2023-03-03T15:05:49;11.70;61.80
3550;DHT22;45572;48.804;8.330;2023-03-03T15:08:29;11.60;61.70
3550;DHT22;45572;48.804;8.330;2023-03-03T15:11:19;11.40;62.40
3550;DHT22;45572;48.804;8.330;2023-03-03T15:13:50;11.30;62.30
3550;DHT22;45572;48.804;8.330;2023-03-03T15:16:21;11.30;62.30
3550;DHT22;45572;48.804;8.330;2023-03-03T15:19:02;11.30;63.10
3550;DHT22;45572;48.804;8.330;2023-03-03T15:21:36;11.30;62.30
3550;DHT22;45572;48.804;8.330;2023-03-03T15:24:14;11.30;62.20
3550;DHT22;45572;48.804;8.330;2023-03-03T15:26:50;11.30;62.40
3550;DHT22;45572;48.804;8.330;2023-03-03T15:29:23;11.30;62.80
3550;DHT22;45572;48.804;8.330;2023-03-03T15:31:59;11.30;62.70
3550;DHT22;45572;48.804;8.330;2023-03-03T15:34:36;11.30;62.20
3550;DHT22;45572;48.804;8.330;2023-03-03T15:37:17;11.30;62.20
3550;DHT22;45572;48.804;8.330;2023-03-03T15:39:54;11.20;62.70
3550;DHT22;45572;48.804;8.330;2023-03-03T15:42:31;11.20;63.00
3550;DHT22;45572;48.804;8.330;2023-03-03T15:45:10;11.10;62.70
3550;DHT22;45572;48.804;8.330;2023-03-03T15:47:49;11.10;62.90
3550;DHT22;45572;48.804;8.330;2023-03-03T15:50:27;11.10;62.70
3550;DHT22;45572;48.804;8.330;2023-03-03T15:53:08;11.00;63.10
3550;DHT22;45572;48.804;8.330;2023-03-03T15:55:53;11.00;63.60
3550;DHT22;45572;48.804;8.330;2023-03-03T15:58:45;10.90;63.00
3550;DHT22;45572;48.804;8.330;2023-03-03T16:01:24;10.90;63.50
3550;DHT22;45572;48.804;8.330;2023-03-03T16:03:56;10.90;63.40
3550;DHT22;45572;48.804;8.330;2023-03-03T16:06:35;10.80;63.90
3550;DHT22;45572;48.804;8.330;2023-03-03T16:09:12;10.70;64.00
3550;DHT22;45572;48.804;8.330;2023-03-03T16:11:48;10.70;64.40
3550;DHT22;45572;48.804;8.330;2023-03-03T16:14:36;10.60;64.00
3550;DHT22;45572;48.804;8.330;2023-03-03T16:17:16;10.50;64.40
3550;DHT22;45572;48.804;8.330;2023-03-03T16:19:51;10.40;64.70
3550;DHT22;45572;48.804;8.330;2023-03-03T16:22:32;10.30;65.00
3550;DHT22;45572;48.804;8.330;2023-03-03T16:25:16;10.20;65.30
3550;DHT22;45572;48.804;8.330;2023-03-03T16:27:51;10.20;65.50
3550;DHT22;45572;48.804;8.330;2023-03-03T16:30:26;10.20;65.70
3550;DHT22;45572;48.804;8.330;2023-03-03T16:33:05;10.10;65.90
3550;DHT22;45572;48.804;8.330;2023-03-03T16:35:38;10.00;65.80
3550;DHT22;45572;48.804;8.330;2023-03-03T16:38:12;10.00;65.90
3550;DHT22;45572;48.804;8.330;2023-03-03T16:40:45;10.00;66.10
3550;DHT22;45572;48.804;8.330;2023-03-03T16:43:23;9.90;66.00
3550;DHT22;45572;48.804;8.330;2023-03-03T16:45:56;9.90;66.10
3550;DHT22;45572;48.804;8.330;2023-03-03T16:48:32;9.90;66.40
3550;DHT22;45572;48.804;8.330;2023-03-03T16:51:11;9.80;66.70
3550;DHT22;45572;48.804;8.330;2023-03-03T16:53:47;9.80;66.90
3550;DHT22;45572;48.804;8.330;2023-03-03T16:56:19;9.70;66.90